createdAt,value
2018-08-30T00:00:58.562Z,0
2018-08-30T00:02:00.065Z,0
2018-08-30T00:03:01.529Z,0
2018-08-30T00:04:03.044Z,0
2018-08-30T00:05:04.507Z,0
2018-08-30T00:06:05.953Z,0
2018-08-30T00:07:07.629Z,0
2018-08-30T00:08:09.420Z,0
2018-08-30T00:09:10.848Z,0
2018-08-30T00:10:12.525Z,0
2018-08-30T00:11:14.035Z,0
2018-08-30T00:12:15.657Z,0
2018-08-30T00:13:17.160Z,0
2018-08-30T00:14:18.684Z,0
2018-08-30T00:15:20.360Z,0
2018-08-30T00:16:21.800Z,0
2018-08-30T00:17:23.291Z,0
2018-08-30T00:18:24.879Z,0
2018-08-30T00:19:26.388Z,0
2018-08-30T00:20:27.854Z,0
2018-08-30T00:21:29.428Z,0
2018-08-30T00:22:30.866Z,0
2018-08-30T00:23:32.495Z,0
2018-08-30T00:24:33.933Z,0
2018-08-30T00:25:35.581Z,0
2018-08-30T00:26:37.071Z,0
2018-08-30T00:27:38.639Z,0
2018-08-30T00:28:40.086Z,0
2018-08-30T00:29:41.740Z,0
2018-08-30T00:30:43.235Z,0
2018-08-30T00:31:44.857Z,0
2018-08-30T00:32:46.392Z,0
2018-08-30T00:33:48.010Z,0
2018-08-30T00:34:49.475Z,0
2018-08-30T00:35:51.039Z,0
2018-08-30T00:36:52.557Z,0
2018-08-30T00:37:54.099Z,0
2018-08-30T00:38:55.557Z,0
2018-08-30T00:39:56.995Z,0
2018-08-30T00:40:58.632Z,0
2018-08-30T00:42:00.119Z,0
2018-08-30T00:43:01.581Z,0
2018-08-30T00:44:03.136Z,0
2018-08-30T00:45:04.594Z,0
2018-08-30T00:46:06.335Z,0
2018-08-30T00:47:07.798Z,0
2018-08-30T00:48:09.329Z,0
2018-08-30T00:49:10.791Z,0
2018-08-30T00:50:12.239Z,0
2018-08-30T00:51:13.857Z,0
2018-08-30T00:52:15.316Z,0
2018-08-30T00:53:16.827Z,0
2018-08-30T00:54:18.416Z,0
2018-08-30T00:55:19.880Z,0
2018-08-30T00:56:21.345Z,0
2018-08-30T00:57:22.898Z,0
2018-08-30T00:58:24.400Z,0
2018-08-30T00:59:25.867Z,0
2018-08-30T01:00:27.430Z,0
2018-08-30T01:01:29.346Z,0
2018-08-30T01:02:30.875Z,0
2018-08-30T01:03:32.698Z,0
2018-08-30T01:04:34.164Z,0
2018-08-30T01:05:35.638Z,0
2018-08-30T01:06:37.249Z,0
2018-08-30T01:07:38.679Z,0
2018-08-30T01:08:40.143Z,0
2018-08-30T01:09:41.569Z,0
2018-08-30T01:10:42.992Z,0
2018-08-30T01:11:44.419Z,0
2018-08-30T01:12:46.020Z,0
2018-08-30T01:13:47.492Z,0
2018-08-30T01:14:49.021Z,0
2018-08-30T01:15:50.485Z,0
2018-08-30T01:16:52.131Z,0
2018-08-30T01:17:53.652Z,0
2018-08-30T01:18:55.180Z,0
2018-08-30T01:19:56.658Z,0
2018-08-30T01:20:58.099Z,0
2018-08-30T01:21:59.707Z,0
2018-08-30T01:23:01.223Z,0
2018-08-30T01:24:02.679Z,0
2018-08-30T01:25:04.273Z,0
2018-08-30T01:26:05.732Z,0
2018-08-30T01:27:07.174Z,0
2018-08-30T01:28:08.810Z,0
2018-08-30T01:29:10.293Z,0
2018-08-30T01:30:11.722Z,0
2018-08-30T01:31:13.287Z,0
2018-08-30T01:32:14.736Z,0
2018-08-30T01:33:16.196Z,0
2018-08-30T01:34:17.829Z,0
2018-08-30T01:35:19.279Z,0
2018-08-30T01:36:20.721Z,0
2018-08-30T01:37:22.416Z,0
2018-08-30T01:38:23.883Z,0
2018-08-30T01:39:25.403Z,0
2018-08-30T01:40:26.860Z,0
2018-08-30T01:41:28.493Z,0
2018-08-30T01:42:29.941Z,0
2018-08-30T01:43:31.583Z,0
2018-08-30T01:44:33.092Z,0
2018-08-30T01:45:34.678Z,0
2018-08-30T01:46:36.100Z,0
2018-08-30T01:47:37.796Z,0
2018-08-30T01:48:39.248Z,0
2018-08-30T01:49:40.850Z,0
2018-08-30T01:50:42.275Z,0
2018-08-30T01:51:43.700Z,0
2018-08-30T01:52:45.372Z,0
2018-08-30T01:53:46.799Z,0
2018-08-30T01:54:48.257Z,0
2018-08-30T01:55:49.901Z,0
2018-08-30T01:56:51.363Z,0
2018-08-30T01:57:53.002Z,0
2018-08-30T01:58:54.441Z,0
2018-08-30T01:59:56.150Z,0
2018-08-30T02:00:57.614Z,0
2018-08-30T02:01:59.222Z,0
2018-08-30T02:03:00.665Z,0
2018-08-30T02:04:02.298Z,0
2018-08-30T02:07:03.072Z,0
2018-08-30T02:08:04.493Z,0
2018-08-30T02:09:05.895Z,0
2018-08-30T02:10:07.361Z,0
2018-08-30T02:11:08.758Z,0
2018-08-30T02:12:10.159Z,0
2018-08-30T02:13:11.735Z,0
2018-08-30T02:14:13.133Z,0
2018-08-30T02:15:14.586Z,0
2018-08-30T02:16:15.990Z,0
2018-08-30T02:17:17.383Z,0
2018-08-30T02:18:18.889Z,0
2018-08-30T02:19:20.284Z,0
2018-08-30T02:20:21.684Z,0
2018-08-30T02:21:23.232Z,0
2018-08-30T02:22:24.669Z,0
2018-08-30T02:23:26.295Z,0
2018-08-30T02:24:27.725Z,0
2018-08-30T02:25:29.164Z,0
2018-08-30T02:26:30.574Z,0
2018-08-30T02:27:31.975Z,0
2018-08-30T02:28:33.509Z,0
2018-08-30T02:29:34.926Z,0
2018-08-30T02:30:36.326Z,0
2018-08-30T02:31:37.835Z,0
2018-08-30T02:32:39.232Z,0
2018-08-30T02:33:40.639Z,0
2018-08-30T02:34:42.152Z,0
2018-08-30T02:35:43.579Z,0
2018-08-30T02:36:44.976Z,0
2018-08-30T02:37:46.469Z,0
2018-08-30T02:38:47.941Z,0
2018-08-30T02:39:49.339Z,0
2018-08-30T02:40:50.744Z,0
2018-08-30T02:41:52.146Z,0
2018-08-30T02:42:53.664Z,0
2018-08-30T02:43:55.064Z,0
2018-08-30T02:44:56.467Z,0
2018-08-30T02:45:58.091Z,0
2018-08-30T02:46:59.495Z,0
2018-08-30T02:48:00.901Z,0
2018-08-30T02:49:02.671Z,0
2018-08-30T02:50:04.020Z,0
2018-08-30T02:51:05.459Z,0
2018-08-30T02:52:07.136Z,0
2018-08-30T02:53:08.568Z,0
2018-08-30T02:54:10.220Z,0
2018-08-30T02:55:11.631Z,0
2018-08-30T02:56:13.306Z,0
2018-08-30T02:57:14.716Z,0
2018-08-30T02:58:16.392Z,0
2018-08-30T02:59:17.802Z,0
2018-08-30T03:00:19.477Z,0
2018-08-30T03:01:20.881Z,0
2018-08-30T03:02:22.284Z,0
2018-08-30T03:03:24.034Z,0
2018-08-30T03:04:25.433Z,0
2018-08-30T03:05:26.857Z,0
2018-08-30T03:06:28.532Z,0
2018-08-30T03:07:29.930Z,0
2018-08-30T03:08:31.613Z,0
2018-08-30T03:09:33.023Z,0
2018-08-30T03:10:34.735Z,0
2018-08-30T03:11:36.137Z,0
2018-08-30T03:12:37.575Z,0
2018-08-30T03:13:39.225Z,0
2018-08-30T03:14:40.630Z,0
2018-08-30T03:15:42.055Z,0
2018-08-30T03:16:43.755Z,0
2018-08-30T03:17:45.164Z,0
2018-08-30T03:18:46.569Z,0
2018-08-30T03:19:48.795Z,0
2018-08-30T03:20:50.153Z,0
2018-08-30T03:21:51.568Z,0
2018-08-30T03:22:53.236Z,0
2018-08-30T03:23:54.678Z,0
2018-08-30T03:24:56.116Z,0
2018-08-30T03:25:57.742Z,0
2018-08-30T03:26:59.143Z,0
2018-08-30T03:28:00.546Z,0
2018-08-30T03:29:02.270Z,0
2018-08-30T03:30:03.744Z,0
2018-08-30T03:31:05.134Z,0
2018-08-30T03:32:06.804Z,0
2018-08-30T03:33:08.206Z,0
2018-08-30T03:34:09.612Z,0
2018-08-30T03:35:11.346Z,0
2018-08-30T03:36:12.747Z,0
2018-08-30T03:37:14.164Z,0
2018-08-30T03:38:15.847Z,0
2018-08-30T03:39:17.259Z,0
2018-08-30T03:40:18.668Z,0
2018-08-30T03:41:20.374Z,0
2018-08-30T03:42:21.796Z,0
2018-08-30T03:43:23.458Z,0
2018-08-30T03:44:24.860Z,0
2018-08-30T03:45:26.552Z,0
2018-08-30T03:46:27.947Z,0
2018-08-30T03:47:29.377Z,0
2018-08-30T03:48:31.068Z,0
2018-08-30T03:49:32.519Z,0
2018-08-30T03:50:33.925Z,0
2018-08-30T03:51:35.624Z,0
2018-08-30T03:52:37.149Z,0
2018-08-30T03:53:38.545Z,0
2018-08-30T03:54:40.511Z,0
2018-08-30T03:55:41.910Z,0
2018-08-30T03:56:43.307Z,0
2018-08-30T03:57:44.853Z,0
2018-08-30T03:58:46.297Z,0
2018-08-30T03:59:47.704Z,0
2018-08-30T04:00:49.383Z,0
2018-08-30T04:01:50.785Z,0
2018-08-30T04:02:52.571Z,0
2018-08-30T04:03:54.170Z,0
2018-08-30T04:04:55.662Z,0
2018-08-30T04:05:57.200Z,0
2018-08-30T04:06:58.596Z,0
2018-08-30T04:08:00.379Z,0
2018-08-30T04:09:01.904Z,0
2018-08-30T04:10:03.687Z,0
2018-08-30T04:11:05.121Z,0
2018-08-30T04:12:06.715Z,0
2018-08-30T04:13:08.180Z,0
2018-08-30T04:14:09.858Z,0
2018-08-30T04:15:11.352Z,0
2018-08-30T04:16:13.113Z,0
2018-08-30T04:17:14.605Z,0
2018-08-30T04:18:16.073Z,0
2018-08-30T04:19:17.877Z,0
2018-08-30T04:20:19.338Z,0
2018-08-30T04:21:20.976Z,0
2018-08-30T04:22:22.722Z,0
2018-08-30T04:23:24.150Z,0
2018-08-30T04:24:25.587Z,0
2018-08-30T04:25:27.313Z,0
2018-08-30T04:26:28.869Z,0
2018-08-30T04:27:30.382Z,0
2018-08-30T04:28:32.024Z,0
2018-08-30T04:29:33.452Z,0
2018-08-30T04:30:35.095Z,0
2018-08-30T04:31:36.571Z,0
2018-08-30T04:32:38.002Z,4
2018-08-30T04:33:39.617Z,4
2018-08-30T04:34:41.460Z,4
2018-08-30T04:35:42.922Z,4
2018-08-30T04:36:44.488Z,0
2018-08-30T04:37:45.965Z,0
2018-08-30T04:38:47.404Z,0
2018-08-30T04:39:49.009Z,4
2018-08-30T04:40:50.458Z,8
2018-08-30T04:41:51.932Z,4
2018-08-30T04:42:53.592Z,8
2018-08-30T04:43:54.966Z,8
2018-08-30T04:44:56.446Z,8
2018-08-30T04:45:58.053Z,8
2018-08-30T04:46:59.497Z,12
2018-08-30T04:48:00.931Z,8
2018-08-30T04:49:02.561Z,12
2018-08-30T04:50:04.036Z,12
2018-08-30T04:51:05.651Z,8
2018-08-30T04:52:07.234Z,8
2018-08-30T04:53:09.168Z,12
2018-08-30T04:54:10.637Z,16
2018-08-30T04:55:12.206Z,16
2018-08-30T04:56:13.698Z,16
2018-08-30T04:57:15.301Z,12
2018-08-30T04:58:16.775Z,8
2018-08-30T04:59:18.487Z,12
2018-08-30T05:00:20.328Z,8
2018-08-30T05:01:22.031Z,8
2018-08-30T05:02:23.507Z,12
2018-08-30T05:03:24.965Z,12
2018-08-30T05:04:26.724Z,16
2018-08-30T05:05:28.198Z,16
2018-08-30T05:06:29.681Z,24
2018-08-30T05:07:31.372Z,20
2018-08-30T05:08:32.827Z,28
2018-08-30T05:09:34.436Z,28
2018-08-30T05:10:35.864Z,32
2018-08-30T05:11:37.499Z,32
2018-08-30T05:12:38.967Z,56
2018-08-30T05:13:40.577Z,40
2018-08-30T05:14:41.985Z,32
2018-08-30T05:15:43.454Z,44
2018-08-30T05:16:44.912Z,80
2018-08-30T05:17:46.611Z,60
2018-08-30T05:18:48.060Z,44
2018-08-30T05:19:49.669Z,48
2018-08-30T05:20:51.079Z,68
2018-08-30T05:21:52.569Z,60
2018-08-30T05:22:54.071Z,80
2018-08-30T05:23:55.497Z,112
2018-08-30T05:24:57.104Z,80
2018-08-30T05:25:58.610Z,88
2018-08-30T05:27:00.152Z,92
2018-08-30T05:28:01.823Z,100
2018-08-30T05:29:03.283Z,120
2018-08-30T05:30:04.753Z,152
2018-08-30T05:31:06.343Z,120
2018-08-30T05:32:07.761Z,160
2018-08-30T05:33:09.229Z,148
2018-08-30T05:34:10.871Z,104
2018-08-30T05:35:12.282Z,96
2018-08-30T05:36:13.691Z,80
2018-08-30T05:37:15.138Z,96
2018-08-30T05:38:16.552Z,124
2018-08-30T05:39:17.961Z,92
2018-08-30T05:40:19.465Z,96
2018-08-30T05:41:20.891Z,80
2018-08-30T05:42:22.315Z,116
2018-08-30T05:43:23.781Z,104
2018-08-30T05:44:25.188Z,92
2018-08-30T05:45:26.663Z,96
2018-08-30T05:46:28.072Z,96
2018-08-30T05:47:29.550Z,72
2018-08-30T05:48:31.389Z,88
2018-08-30T05:49:32.872Z,96
2018-08-30T05:50:34.279Z,84
2018-08-30T05:51:35.709Z,68
2018-08-30T05:52:37.122Z,68
2018-08-30T05:53:38.593Z,72
2018-08-30T05:54:39.998Z,80
2018-08-30T05:55:41.480Z,92
2018-08-30T05:56:42.922Z,128
2018-08-30T05:57:44.364Z,180
2018-08-30T05:58:45.774Z,228
2018-08-30T05:59:47.184Z,252
2018-08-30T06:00:48.680Z,260
2018-08-30T06:01:50.105Z,200
2018-08-30T06:02:51.535Z,204
2018-08-30T06:03:53.027Z,264
2018-08-30T06:04:54.415Z,244
2018-08-30T06:05:55.880Z,228
2018-08-30T06:06:57.359Z,224
2018-08-30T06:07:58.823Z,172
2018-08-30T06:09:00.296Z,152
2018-08-30T06:10:01.945Z,148
2018-08-30T06:11:03.396Z,120
2018-08-30T06:12:04.987Z,152
2018-08-30T06:13:06.539Z,176
2018-08-30T06:14:07.904Z,164
2018-08-30T06:15:09.557Z,160
2018-08-30T06:16:11.002Z,188
2018-08-30T06:17:12.450Z,200
2018-08-30T06:18:14.065Z,228
2018-08-30T06:19:15.741Z,240
2018-08-30T06:20:17.200Z,196
2018-08-30T06:21:18.807Z,240
2018-08-30T06:22:20.315Z,244
2018-08-30T06:23:21.786Z,160
2018-08-30T06:24:23.288Z,160
2018-08-30T06:25:24.858Z,148
2018-08-30T06:26:26.376Z,252
2018-08-30T06:27:27.818Z,276
2018-08-30T06:28:29.433Z,188
2018-08-30T06:29:30.906Z,260
2018-08-30T06:30:32.644Z,232
2018-08-30T06:31:34.157Z,256
2018-08-30T06:32:35.808Z,220
2018-08-30T06:33:37.305Z,232
2018-08-30T06:34:39.132Z,236
2018-08-30T06:35:40.616Z,232
2018-08-30T06:36:42.298Z,236
2018-08-30T06:37:44.000Z,228
2018-08-30T06:38:45.640Z,196
2018-08-30T06:39:47.043Z,248
2018-08-30T06:40:48.643Z,276
2018-08-30T06:41:50.050Z,296
2018-08-30T06:42:52.147Z,304
2018-08-30T06:43:53.586Z,364
2018-08-30T06:44:56.106Z,392
2018-08-30T06:45:57.592Z,408
2018-08-30T06:46:59.030Z,332
2018-08-30T06:48:00.573Z,312
2018-08-30T06:49:02.159Z,368
2018-08-30T06:50:03.664Z,428
2018-08-30T06:51:05.308Z,528
2018-08-30T06:52:06.717Z,492
2018-08-30T06:53:08.381Z,624
2018-08-30T06:54:09.794Z,628
2018-08-30T06:55:11.209Z,596
2018-08-30T06:56:12.876Z,712
2018-08-30T06:57:14.227Z,504
2018-08-30T06:58:15.657Z,648
2018-08-30T06:59:17.152Z,748
2018-08-30T07:00:18.584Z,616
2018-08-30T07:01:20.000Z,820
2018-08-30T07:02:21.486Z,528
2018-08-30T07:03:22.909Z,924
2018-08-30T07:04:24.362Z,1024
2018-08-30T07:05:28.191Z,656
2018-08-30T07:06:29.632Z,1064
2018-08-30T07:07:31.155Z,924
2018-08-30T07:08:32.685Z,1104
2018-08-30T07:09:34.173Z,1164
2018-08-30T07:10:35.711Z,956
2018-08-30T07:11:37.138Z,1184
2018-08-30T07:12:38.580Z,1008
2018-08-30T07:13:40.202Z,632
2018-08-30T07:14:41.770Z,704
2018-08-30T07:15:43.097Z,740
2018-08-30T07:16:44.732Z,900
2018-08-30T07:17:46.159Z,860
2018-08-30T07:18:47.619Z,1136
2018-08-30T07:19:49.089Z,836
2018-08-30T07:20:50.677Z,1080
2018-08-30T07:21:52.116Z,1200
2018-08-30T07:22:53.572Z,1180
2018-08-30T07:23:54.983Z,1060
2018-08-30T07:24:56.432Z,976
2018-08-30T07:25:57.848Z,936
2018-08-30T07:26:59.307Z,1140
2018-08-30T07:28:00.775Z,1292
2018-08-30T07:29:02.195Z,1532
2018-08-30T07:30:04.428Z,1712
2018-08-30T07:31:05.915Z,1400
2018-08-30T07:32:07.358Z,1644
2018-08-30T07:33:09.007Z,1408
2018-08-30T07:34:10.465Z,1748
2018-08-30T07:35:12.158Z,1388
2018-08-30T07:36:13.789Z,1576
2018-08-30T07:37:15.374Z,1496
2018-08-30T07:38:16.794Z,1620
2018-08-30T07:39:18.254Z,1564
2018-08-30T07:40:22.531Z,1576
2018-08-30T07:41:23.959Z,1500
2018-08-30T07:42:25.444Z,1460
2018-08-30T07:43:26.881Z,1908
2018-08-30T07:44:28.502Z,1856
2018-08-30T07:45:29.974Z,1552
2018-08-30T07:46:31.410Z,2244
2018-08-30T07:47:32.862Z,2152
2018-08-30T07:48:34.573Z,2072
2018-08-30T07:49:36.014Z,2136
2018-08-30T07:50:37.437Z,2092
2018-08-30T07:51:39.049Z,2484
2018-08-30T07:52:40.502Z,2600
2018-08-30T07:53:42.109Z,2612
2018-08-30T07:54:43.572Z,2984
2018-08-30T07:55:45.188Z,2948
2018-08-30T07:56:46.622Z,2604
2018-08-30T07:57:48.084Z,1460
2018-08-30T07:58:49.545Z,972
2018-08-30T07:59:51.200Z,732
2018-08-30T08:00:52.590Z,764
2018-08-30T08:01:54.092Z,772
2018-08-30T08:02:55.544Z,924
2018-08-30T08:03:57.126Z,1444
2018-08-30T08:04:58.554Z,1384
2018-08-30T08:06:01.093Z,1140
2018-08-30T08:07:02.487Z,1032
2018-08-30T08:08:04.164Z,856
2018-08-30T08:09:05.594Z,1256
2018-08-30T08:10:07.201Z,1812
2018-08-30T08:11:08.702Z,2820
2018-08-30T08:12:10.167Z,1984
2018-08-30T08:13:11.795Z,1044
2018-08-30T08:14:13.186Z,1244
2018-08-30T08:15:14.837Z,1500
2018-08-30T08:16:16.624Z,1604
2018-08-30T08:17:18.134Z,1960
2018-08-30T08:18:19.871Z,1836
2018-08-30T08:19:21.321Z,3112
2018-08-30T08:20:23.139Z,2948
2018-08-30T08:21:24.588Z,3080
2018-08-30T08:22:26.156Z,2740
2018-08-30T08:23:27.619Z,2276
2018-08-30T08:24:29.229Z,2356
2018-08-30T08:25:30.676Z,2288
2018-08-30T08:26:32.122Z,2240
2018-08-30T08:27:33.829Z,2544
2018-08-30T08:28:35.270Z,2124
2018-08-30T08:29:36.758Z,1952
2018-08-30T08:30:38.273Z,2484
2018-08-30T08:31:39.733Z,2112
2018-08-30T08:32:41.195Z,2072
2018-08-30T08:33:42.939Z,2356
2018-08-30T08:34:44.375Z,2036
2018-08-30T08:35:45.841Z,2888
2018-08-30T08:36:47.346Z,2860
2018-08-30T08:37:48.777Z,3224
2018-08-30T08:38:50.238Z,3416
2018-08-30T08:39:51.858Z,2928
2018-08-30T08:40:53.283Z,3372
2018-08-30T08:41:54.745Z,1844
2018-08-30T08:42:56.432Z,3800
2018-08-30T08:43:57.887Z,3960
2018-08-30T08:44:59.418Z,4280
2018-08-30T08:46:00.962Z,2444
2018-08-30T08:47:02.407Z,1652
2018-08-30T08:48:03.897Z,2040
2018-08-30T08:49:05.823Z,2252
2018-08-30T08:50:08.880Z,2564
2018-08-30T08:51:09.979Z,820
2018-08-30T08:52:11.809Z,1068
2018-08-30T08:53:13.755Z,1204
2018-08-30T08:54:15.582Z,1492
2018-08-30T08:55:17.439Z,3856
2018-08-30T08:56:19.212Z,2856
2018-08-30T08:57:21.060Z,4052
2018-08-30T08:58:23.067Z,964
2018-08-30T08:59:24.885Z,840
2018-08-30T09:00:26.685Z,1072
2018-08-30T09:01:28.748Z,1640
2018-08-30T09:02:30.425Z,2364
2018-08-30T09:03:32.333Z,3132
2018-08-30T09:04:34.190Z,3224
2018-08-30T09:05:36.006Z,1468
2018-08-30T09:06:37.829Z,1996
2018-08-30T09:07:39.709Z,3980
2018-08-30T09:08:41.455Z,4160
2018-08-30T09:09:43.307Z,1752
2018-08-30T09:10:45.270Z,1236
2018-08-30T09:11:47.049Z,1752
2018-08-30T09:12:48.925Z,2272
2018-08-30T09:13:50.867Z,2536
2018-08-30T09:14:52.607Z,2480
2018-08-30T09:15:54.367Z,2832
2018-08-30T09:16:56.174Z,2832
2018-08-30T09:17:57.896Z,3044
2018-08-30T09:18:59.771Z,2688
2018-08-30T09:20:01.528Z,3140
2018-08-30T09:21:03.330Z,3180
2018-08-30T09:22:05.135Z,1964
2018-08-30T09:23:07.101Z,1272
2018-08-30T09:24:08.955Z,932
2018-08-30T09:25:10.788Z,1092
2018-08-30T09:26:12.603Z,864
2018-08-30T09:27:14.564Z,1316
2018-08-30T09:28:16.336Z,1536
2018-08-30T09:29:18.098Z,1924
2018-08-30T09:30:19.982Z,2444
2018-08-30T09:31:22.084Z,2512
2018-08-30T09:32:24.351Z,2568
2018-08-30T09:33:26.192Z,2784
2018-08-30T09:34:27.999Z,2628
2018-08-30T09:35:29.844Z,1944
2018-08-30T09:36:31.644Z,2048
2018-08-30T09:37:33.554Z,2040
2018-08-30T09:38:35.361Z,2628
2018-08-30T09:39:37.251Z,3272
2018-08-30T09:40:39.000Z,3368
2018-08-30T09:41:41.168Z,3044
2018-08-30T09:42:43.365Z,2536
2018-08-30T09:43:45.146Z,2632
2018-08-30T09:44:47.088Z,2720
2018-08-30T09:45:48.949Z,2924
2018-08-30T09:46:50.728Z,2460
2018-08-30T09:47:52.570Z,2508
2018-08-30T09:48:54.561Z,2940
2018-08-30T09:49:56.402Z,2124
2018-08-30T09:50:58.410Z,2604
2018-08-30T09:52:00.261Z,3096
2018-08-30T09:53:02.106Z,3640
2018-08-30T09:54:04.122Z,3476
2018-08-30T09:55:05.842Z,2820
2018-08-30T09:56:07.782Z,2672
2018-08-30T09:57:10.096Z,2400
2018-08-30T09:58:11.680Z,1648
2018-08-30T09:59:13.842Z,1548
2018-08-30T10:00:15.662Z,1684
2018-08-30T10:01:17.644Z,3168
2018-08-30T10:02:19.494Z,3776
2018-08-30T10:03:21.379Z,4868
2018-08-30T10:04:23.300Z,10984
2018-08-30T10:05:25.180Z,3456
2018-08-30T10:06:27.099Z,18464
2018-08-30T10:07:29.026Z,18688
2018-08-30T10:08:31.016Z,3704
2018-08-30T10:09:32.747Z,2248
2018-08-30T10:10:34.820Z,2180
2018-08-30T10:11:37.074Z,18912
2018-08-30T10:12:39.143Z,10456
2018-08-30T10:13:41.216Z,20192
2018-08-30T10:14:43.080Z,11288
2018-08-30T10:15:45.024Z,19840
2018-08-30T10:16:47.274Z,2032
2018-08-30T10:17:49.196Z,1460
2018-08-30T10:18:51.223Z,920
2018-08-30T10:19:53.420Z,496
2018-08-30T10:20:55.382Z,360
2018-08-30T10:21:57.359Z,296
2018-08-30T10:22:59.556Z,364
2018-08-30T10:24:01.600Z,508
2018-08-30T10:25:04.664Z,556
2018-08-30T10:26:06.765Z,668
2018-08-30T10:27:08.517Z,768
2018-08-30T10:28:10.084Z,1028
2018-08-30T10:29:11.895Z,1428
2018-08-30T10:30:13.804Z,2136
2018-08-30T10:31:15.751Z,3128
2018-08-30T10:32:17.958Z,3752
2018-08-30T10:33:19.876Z,3728
2018-08-30T10:34:22.175Z,3460
2018-08-30T10:35:24.136Z,3508
2018-08-30T10:36:26.355Z,3352
2018-08-30T10:37:28.327Z,3160
2018-08-30T10:38:30.475Z,2944
2018-08-30T10:39:32.511Z,2684
2018-08-30T10:40:34.514Z,2632
2018-08-30T10:41:36.652Z,2676
2018-08-30T10:42:38.245Z,2720
2018-08-30T10:43:40.508Z,2756
2018-08-30T10:44:42.410Z,2760
2018-08-30T10:45:44.300Z,2732
2018-08-30T10:46:46.469Z,2744
2018-08-30T10:47:48.695Z,2748
2018-08-30T10:48:50.838Z,2800
2018-08-30T10:49:52.885Z,2888
2018-08-30T10:50:55.729Z,3192
2018-08-30T10:51:58.014Z,3052
2018-08-30T10:53:01.718Z,2764
2018-08-30T10:54:03.678Z,2344
2018-08-30T10:55:05.866Z,2052
2018-08-30T10:56:07.712Z,1808
2018-08-30T10:57:09.684Z,1404
2018-08-30T10:58:11.505Z,1204
2018-08-30T10:59:13.530Z,1084
2018-08-30T11:00:15.311Z,936
2018-08-30T11:01:18.099Z,908
2018-08-30T11:02:20.044Z,816
2018-08-30T11:03:21.890Z,640
2018-08-30T11:04:25.680Z,524
2018-08-30T11:05:28.027Z,520
2018-08-30T11:06:31.772Z,640
2018-08-30T11:07:35.693Z,756
2018-08-30T11:08:38.453Z,756
2018-08-30T11:09:41.985Z,744
2018-08-30T11:10:46.416Z,724
2018-08-30T11:11:50.331Z,688
2018-08-30T11:12:53.198Z,700
2018-08-30T11:13:57.227Z,800
2018-08-30T11:15:01.141Z,920
2018-08-30T11:16:03.884Z,980
2018-08-30T11:17:06.859Z,1036
2018-08-30T11:18:09.414Z,1112
2018-08-30T11:19:13.612Z,1228
2018-08-30T11:20:17.943Z,1264
2018-08-30T11:21:21.366Z,1284
2018-08-30T11:22:23.728Z,1404
2018-08-30T11:23:28.712Z,1632
2018-08-30T11:24:30.865Z,1732
2018-08-30T11:25:33.143Z,1828
2018-08-30T11:26:35.500Z,1916
2018-08-30T11:27:37.928Z,2036
2018-08-30T11:28:40.048Z,2088
2018-08-30T11:29:42.499Z,2132
2018-08-30T11:30:44.761Z,2252
2018-08-30T11:31:47.228Z,2388
2018-08-30T11:32:50.795Z,2576
2018-08-30T11:33:53.979Z,2540
2018-08-30T11:34:56.713Z,2464
2018-08-30T11:35:58.816Z,2420
2018-08-30T11:37:01.154Z,2384
2018-08-30T11:38:02.946Z,2416
2018-08-30T11:39:05.069Z,2464
2018-08-30T11:40:07.042Z,2508
2018-08-30T11:41:09.498Z,2528
2018-08-30T11:42:11.419Z,2548
2018-08-30T11:43:14.137Z,2504
2018-08-30T11:44:16.369Z,2488
2018-08-30T11:45:18.335Z,2456
2018-08-30T11:46:20.567Z,2420
2018-08-30T11:47:22.593Z,2360
2018-08-30T11:48:24.666Z,2304
2018-08-30T11:49:26.732Z,2352
2018-08-30T11:50:28.694Z,2548
2018-08-30T11:51:31.040Z,2812
2018-08-30T11:52:33.054Z,2996
2018-08-30T11:53:34.919Z,3136
2018-08-30T11:54:36.793Z,3248
2018-08-30T11:55:39.284Z,3296
2018-08-30T11:56:41.227Z,3264
2018-08-30T11:57:43.192Z,3328
2018-08-30T11:58:45.358Z,3260
2018-08-30T11:59:47.865Z,3184
2018-08-30T12:00:50.072Z,2944
2018-08-30T12:01:51.983Z,3004
2018-08-30T12:02:54.159Z,1920
2018-08-30T12:03:56.212Z,1240
2018-08-30T12:04:57.880Z,1048
2018-08-30T12:05:59.317Z,1104
2018-08-30T12:07:00.981Z,1152
2018-08-30T12:08:02.386Z,1492
2018-08-30T12:09:05.048Z,1716
2018-08-30T12:10:06.489Z,1776
2018-08-30T12:11:08.201Z,1824
2018-08-30T12:12:09.536Z,1932
2018-08-30T12:13:11.230Z,2292
2018-08-30T12:14:12.655Z,2164
2018-08-30T12:15:14.264Z,1672
2018-08-30T12:16:15.692Z,1352
2018-08-30T12:17:17.360Z,1220
2018-08-30T12:18:18.826Z,1416
2018-08-30T12:19:20.476Z,1424
2018-08-30T12:20:22.042Z,1744
2018-08-30T12:21:23.772Z,2116
2018-08-30T12:22:25.587Z,2468
2018-08-30T12:23:27.758Z,2220
2018-08-30T12:24:29.719Z,2276
2018-08-30T12:25:31.709Z,2376
2018-08-30T12:26:33.521Z,2180
2018-08-30T12:27:35.393Z,2064
2018-08-30T12:28:37.288Z,1824
2018-08-30T12:29:38.906Z,1556
2018-08-30T12:30:40.720Z,1584
2018-08-30T12:31:42.523Z,1800
2018-08-30T12:32:44.211Z,2076
2018-08-30T12:33:46.058Z,2036
2018-08-30T12:34:47.811Z,1880
2018-08-30T12:35:49.786Z,1800
2018-08-30T12:36:51.443Z,1772
2018-08-30T12:37:53.271Z,1832
2018-08-30T12:38:55.126Z,2108
2018-08-30T12:39:57.180Z,2400
2018-08-30T12:40:59.025Z,2596
2018-08-30T12:42:01.000Z,2640
2018-08-30T12:43:02.889Z,2616
2018-08-30T12:44:04.560Z,2460
2018-08-30T12:45:06.392Z,2132
2018-08-30T12:46:08.237Z,1424
2018-08-30T12:47:10.016Z,896
2018-08-30T12:48:12.008Z,596
2018-08-30T12:49:13.740Z,396
2018-08-30T12:50:15.716Z,356
2018-08-30T12:51:17.722Z,352
2018-08-30T12:52:19.162Z,444
2018-08-30T12:53:21.027Z,560
2018-08-30T12:54:22.809Z,672
2018-08-30T12:55:24.691Z,784
2018-08-30T12:56:26.331Z,928
2018-08-30T12:57:28.029Z,1012
2018-08-30T12:58:29.827Z,1052
2018-08-30T12:59:31.623Z,1056
2018-08-30T13:00:33.311Z,1240
2018-08-30T13:01:35.196Z,1392
2018-08-30T13:02:37.222Z,1572
2018-08-30T13:03:39.158Z,1548
2018-08-30T13:04:41.012Z,1528
2018-08-30T13:05:42.816Z,1512
2018-08-30T13:06:44.511Z,1492
2018-08-30T13:07:46.132Z,1468
2018-08-30T13:08:48.139Z,1520
2018-08-30T13:09:50.587Z,1548
2018-08-30T13:10:52.960Z,1624
2018-08-30T13:11:54.983Z,1560
2018-08-30T13:12:57.368Z,1436
2018-08-30T13:13:59.428Z,1340
2018-08-30T13:15:01.636Z,1188
2018-08-30T13:16:03.239Z,1220
2018-08-30T13:17:05.096Z,1200
2018-08-30T13:18:06.858Z,1184
2018-08-30T13:19:08.774Z,1044
2018-08-30T13:20:10.275Z,1004
2018-08-30T13:21:12.525Z,996
2018-08-30T13:22:14.161Z,1012
2018-08-30T13:23:16.089Z,1100
2018-08-30T13:24:17.894Z,1140
2018-08-30T13:25:19.802Z,1124
2018-08-30T13:26:21.497Z,1288
2018-08-30T13:27:23.827Z,1444
2018-08-30T13:28:25.510Z,1340
2018-08-30T13:29:27.446Z,1068
2018-08-30T13:30:29.302Z,992
2018-08-30T13:31:31.106Z,1296
2018-08-30T13:32:33.362Z,1324
2018-08-30T13:33:34.909Z,1292
2018-08-30T13:34:36.673Z,1160
2018-08-30T13:35:38.683Z,1064
2018-08-30T13:36:40.495Z,844
2018-08-30T13:37:42.708Z,712
2018-08-30T13:38:44.219Z,656
2018-08-30T13:39:46.037Z,636
2018-08-30T13:40:47.788Z,628
2018-08-30T13:41:49.365Z,644
2018-08-30T13:42:51.257Z,672
2018-08-30T13:43:53.050Z,712
2018-08-30T13:44:54.738Z,780
2018-08-30T13:45:56.532Z,860
2018-08-30T13:46:59.798Z,960
2018-08-30T13:48:03.004Z,1056
2018-08-30T13:49:04.988Z,1152
2018-08-30T13:50:06.718Z,1220
2018-08-30T13:51:08.502Z,1264
2018-08-30T13:52:10.613Z,1292
2018-08-30T13:53:12.054Z,1324
2018-08-30T13:54:13.900Z,1336
2018-08-30T13:55:16.047Z,1276
2018-08-30T13:56:17.961Z,1176
2018-08-30T13:57:19.835Z,1064
2018-08-30T13:58:21.536Z,976
2018-08-30T13:59:23.543Z,904
2018-08-30T14:00:25.615Z,824
2018-08-30T14:01:27.822Z,764
2018-08-30T14:02:29.183Z,740
2018-08-30T14:03:31.096Z,736
2018-08-30T14:04:33.069Z,868
2018-08-30T14:05:35.049Z,788
2018-08-30T14:06:36.637Z,704
2018-08-30T14:07:38.456Z,688
2018-08-30T14:08:40.268Z,664
2018-08-30T14:09:41.990Z,652
2018-08-30T14:10:43.663Z,712
2018-08-30T14:11:46.487Z,656
2018-08-30T14:12:48.196Z,636
2018-08-30T14:13:50.160Z,628
2018-08-30T14:14:51.961Z,632
2018-08-30T14:15:53.488Z,620
2018-08-30T14:16:55.363Z,608
2018-08-30T14:17:57.311Z,604
2018-08-30T14:18:59.159Z,640
2018-08-30T14:20:01.026Z,756
2018-08-30T14:21:02.575Z,636
2018-08-30T14:22:04.798Z,600